Terminal Aerodrome Forecast
Issued by NWS

Home | Current Version | Previous Version | Text Only | Print | Product List | Glossary On
Versions: 1 2 3 4 5 6 7 8 9 10 11 12 13 14
131
FTUS45 KRIW 291121
TAFJAC
TAF
KJAC 291121Z 2912/3012 VRB05KT P6SM SCT100
     FM291600 20005KT P6SM VCSH BKN100
     FM291700 24011KT P6SM VCTS BKN070CB
     FM300100 35007KT P6SM VCSH SCT050 BKN100
     FM300400 36007KT P6SM SCT060 BKN120
     FM300800 01005KT P6SM SCT120
      AMD LTD TO CLD VIS AND WIND=

USA.gov is the U.S. government's official web portal to all federal, state and local government web resources and services.